sensor_id;sensor_type;location;lat;lon;timestamp;P1;durP1;ratioP1;P2;durP2;ratioP2
28653;SDS011;24320;56.980;24.336;2023-04-24T00:01:25;6.72;;;3.38;;
28653;SDS011;24320;56.980;24.336;2023-04-24T00:03:53;5.93;;;3.05;;
28653;SDS011;24320;56.980;24.336;2023-04-24T00:06:20;6.75;;;3.58;;
28653;SDS011;24320;56.980;24.336;2023-04-24T00:08:49;7.10;;;3.08;;
28653;SDS011;24320;56.980;24.336;2023-04-24T00:11:16;4.88;;;3.30;;
28653;SDS011;24320;56.980;24.336;2023-04-24T00:13:43;5.70;;;2.85;;
28653;SDS011;24320;56.980;24.336;2023-04-24T00:16:10;6.93;;;3.10;;
28653;SDS011;24320;56.980;24.336;2023-04-24T00:18:37;5.35;;;3.25;;
28653;SDS011;24320;56.980;24.336;2023-04-24T00:21:05;3.75;;;2.80;;
28653;SDS011;24320;56.980;24.336;2023-04-24T00:23:33;6.47;;;2.80;;
28653;SDS011;24320;56.980;24.336;2023-04-24T00:26:00;6.93;;;3.13;;
28653;SDS011;24320;56.980;24.336;2023-04-24T00:28:28;7.18;;;3.03;;
28653;SDS011;24320;56.980;24.336;2023-04-24T00:30:55;10.50;;;3.08;;
28653;SDS011;24320;56.980;24.336;2023-04-24T00:33:22;7.88;;;3.47;;
28653;SDS011;24320;56.980;24.336;2023-04-24T00:35:49;4.10;;;2.67;;
28653;SDS011;24320;56.980;24.336;2023-04-24T00:38:16;5.15;;;2.90;;
28653;SDS011;24320;56.980;24.336;2023-04-24T00:40:43;7.80;;;2.72;;
28653;SDS011;24320;56.980;24.336;2023-04-24T00:43:10;5.30;;;3.10;;
28653;SDS011;24320;56.980;24.336;2023-04-24T00:45:38;4.80;;;3.15;;
28653;SDS011;24320;56.980;24.336;2023-04-24T00:48:05;5.90;;;3.08;;
28653;SDS011;24320;56.980;24.336;2023-04-24T00:50:35;9.75;;;3.20;;
28653;SDS011;24320;56.980;24.336;2023-04-24T00:53:03;7.25;;;3.42;;
28653;SDS011;24320;56.980;24.336;2023-04-24T00:55:30;11.00;;;3.30;;
28653;SDS011;24320;56.980;24.336;2023-04-24T00:57:58;5.20;;;3.10;;
28653;SDS011;24320;56.980;24.336;2023-04-24T01:00:26;8.10;;;2.97;;
28653;SDS011;24320;56.980;24.336;2023-04-24T01:02:53;5.18;;;2.97;;
28653;SDS011;24320;56.980;24.336;2023-04-24T01:05:21;4.53;;;3.08;;
28653;SDS011;24320;56.980;24.336;2023-04-24T01:07:49;6.45;;;2.97;;
28653;SDS011;24320;56.980;24.336;2023-04-24T01:10:16;10.52;;;2.90;;
28653;SDS011;24320;56.980;24.336;2023-04-24T01:12:44;6.78;;;3.00;;
28653;SDS011;24320;56.980;24.336;2023-04-24T01:15:11;5.25;;;2.67;;
28653;SDS011;24320;56.980;24.336;2023-04-24T01:17:38;7.53;;;3.00;;
28653;SDS011;24320;56.980;24.336;2023-04-24T01:20:06;4.72;;;3.00;;
28653;SDS011;24320;56.980;24.336;2023-04-24T01:22:34;10.00;;;3.60;;
28653;SDS011;24320;56.980;24.336;2023-04-24T01:25:01;5.40;;;2.88;;
28653;SDS011;24320;56.980;24.336;2023-04-24T01:27:29;6.32;;;3.05;;
28653;SDS011;24320;56.980;24.336;2023-04-24T01:29:57;3.85;;;2.60;;
28653;SDS011;24320;56.980;24.336;2023-04-24T01:32:24;4.47;;;2.92;;
28653;SDS011;24320;56.980;24.336;2023-04-24T01:34:52;8.52;;;3.10;;
28653;SDS011;24320;56.980;24.336;2023-04-24T01:37:19;6.13;;;3.15;;
28653;SDS011;24320;56.980;24.336;2023-04-24T01:39:47;5.70;;;3.10;;
28653;SDS011;24320;56.980;24.336;2023-04-24T01:42:14;5.63;;;2.90;;
28653;SDS011;24320;56.980;24.336;2023-04-24T01:44:41;4.60;;;2.90;;
28653;SDS011;24320;56.980;24.336;2023-04-24T01:47:08;4.38;;;2.80;;
28653;SDS011;24320;56.980;24.336;2023-04-24T01:49:36;6.75;;;2.90;;
28653;SDS011;24320;56.980;24.336;2023-04-24T01:52:05;4.40;;;2.90;;
28653;SDS011;24320;56.980;24.336;2023-04-24T01:54:31;6.72;;;2.75;;
28653;SDS011;24320;56.980;24.336;2023-04-24T01:56:58;7.20;;;2.58;;
28653;SDS011;24320;56.980;24.336;2023-04-24T01:59:27;6.82;;;2.70;;
28653;SDS011;24320;56.980;24.336;2023-04-24T02:01:55;5.05;;;2.88;;
28653;SDS011;24320;56.980;24.336;2023-04-24T02:04:22;4.50;;;2.72;;
28653;SDS011;24320;56.980;24.336;2023-04-24T02:06:49;5.70;;;2.90;;
28653;SDS011;24320;56.980;24.336;2023-04-24T02:09:16;5.00;;;2.63;;
28653;SDS011;24320;56.980;24.336;2023-04-24T02:11:43;4.55;;;2.70;;
28653;SDS011;24320;56.980;24.336;2023-04-24T02:14:10;4.13;;;2.58;;
28653;SDS011;24320;56.980;24.336;2023-04-24T02:16:37;3.28;;;2.30;;
28653;SDS011;24320;56.980;24.336;2023-04-24T02:19:04;4.63;;;2.63;;
28653;SDS011;24320;56.980;24.336;2023-04-24T02:21:31;7.80;;;2.50;;
28653;SDS011;24320;56.980;24.336;2023-04-24T02:23:59;4.63;;;2.90;;
28653;SDS011;24320;56.980;24.336;2023-04-24T02:26:26;3.90;;;2.80;;
28653;SDS011;24320;56.980;24.336;2023-04-24T02:28:53;6.85;;;2.92;;
28653;SDS011;24320;56.980;24.336;2023-04-24T02:31:20;4.32;;;2.45;;
28653;SDS011;24320;56.980;24.336;2023-04-24T02:33:47;8.88;;;2.88;;
28653;SDS011;24320;56.980;24.336;2023-04-24T02:36:14;8.70;;;3.08;;
28653;SDS011;24320;56.980;24.336;2023-04-24T02:38:41;5.72;;;2.97;;
28653;SDS011;24320;56.980;24.336;2023-04-24T02:41:08;4.88;;;2.72;;
28653;SDS011;24320;56.980;24.336;2023-04-24T02:43:35;5.30;;;2.83;;
28653;SDS011;24320;56.980;24.336;2023-04-24T02:46:02;5.30;;;2.78;;
28653;SDS011;24320;56.980;24.336;2023-04-24T02:48:29;4.43;;;2.80;;
28653;SDS011;24320;56.980;24.336;2023-04-24T02:50:56;4.97;;;2.55;;
28653;SDS011;24320;56.980;24.336;2023-04-24T02:53:24;4.32;;;2.70;;
28653;SDS011;24320;56.980;24.336;2023-04-24T02:55:51;5.00;;;2.53;;
28653;SDS011;24320;56.980;24.336;2023-04-24T02:58:18;12.82;;;2.83;;
28653;SDS011;24320;56.980;24.336;2023-04-24T03:00:46;4.95;;;2.75;;
28653;SDS011;24320;56.980;24.336;2023-04-24T03:03:14;3.65;;;2.60;;
28653;SDS011;24320;56.980;24.336;2023-04-24T03:05:42;7.90;;;2.83;;
28653;SDS011;24320;56.980;24.336;2023-04-24T03:08:09;4.80;;;2.72;;
28653;SDS011;24320;56.980;24.336;2023-04-24T03:10:37;6.07;;;2.85;;
28653;SDS011;24320;56.980;24.336;2023-04-24T03:13:04;7.68;;;2.88;;
28653;SDS011;24320;56.980;24.336;2023-04-24T03:15:31;5.43;;;2.90;;
28653;SDS011;24320;56.980;24.336;2023-04-24T03:17:58;10.73;;;3.15;;
28653;SDS011;24320;56.980;24.336;2023-04-24T03:20:26;4.20;;;2.63;;
28653;SDS011;24320;56.980;24.336;2023-04-24T03:22:53;5.72;;;3.00;;
28653;SDS011;24320;56.980;24.336;2023-04-24T03:25:21;3.80;;;2.75;;
28653;SDS011;24320;56.980;24.336;2023-04-24T03:27:48;7.30;;;2.88;;
28653;SDS011;24320;56.980;24.336;2023-04-24T03:30:15;5.90;;;3.00;;
28653;SDS011;24320;56.980;24.336;2023-04-24T03:32:42;7.72;;;2.80;;
28653;SDS011;24320;56.980;24.336;2023-04-24T03:35:10;6.65;;;2.90;;
28653;SDS011;24320;56.980;24.336;2023-04-24T03:37:37;6.68;;;2.95;;
28653;SDS011;24320;56.980;24.336;2023-04-24T03:40:04;8.45;;;2.70;;
28653;SDS011;24320;56.980;24.336;2023-04-24T03:42:32;4.10;;;2.70;;
28653;SDS011;24320;56.980;24.336;2023-04-24T03:44:59;4.47;;;2.65;;
28653;SDS011;24320;56.980;24.336;2023-04-24T03:47:26;5.78;;;2.65;;
28653;SDS011;24320;56.980;24.336;2023-04-24T03:49:53;5.40;;;3.00;;
28653;SDS011;24320;56.980;24.336;2023-04-24T03:52:22;5.45;;;2.88;;
28653;SDS011;24320;56.980;24.336;2023-04-24T03:54:49;8.73;;;2.90;;
28653;SDS011;24320;56.980;24.336;2023-04-24T03:57:19;4.65;;;2.75;;
28653;SDS011;24320;56.980;24.336;2023-04-24T03:59:46;6.03;;;3.10;;
28653;SDS011;24320;56.980;24.336;2023-04-24T04:02:13;5.32;;;2.80;;
28653;SDS011;24320;56.980;24.336;2023-04-24T04:04:40;9.18;;;3.05;;
28653;SDS011;24320;56.980;24.336;2023-04-24T04:07:07;4.78;;;2.90;;
28653;SDS011;24320;56.980;24.336;2023-04-24T04:09:34;6.85;;;3.05;;
28653;SDS011;24320;56.980;24.336;2023-04-24T04:12:01;3.55;;;2.90;;
28653;SDS011;24320;56.980;24.336;2023-04-24T04:14:29;4.85;;;3.30;;
28653;SDS011;24320;56.980;24.336;2023-04-24T04:16:56;3.72;;;2.63;;
28653;SDS011;24320;56.980;24.336;2023-04-24T04:19:23;5.25;;;2.90;;
28653;SDS011;24320;56.980;24.336;2023-04-24T04:21:50;3.05;;;2.58;;
28653;SDS011;24320;56.980;24.336;2023-04-24T04:24:19;37.33;;;4.75;;
28653;SDS011;24320;56.980;24.336;2023-04-24T04:26:50;6.80;;;2.80;;
28653;SDS011;24320;56.980;24.336;2023-04-24T04:29:18;5.15;;;2.72;;
28653;SDS011;24320;56.980;24.336;2023-04-24T04:31:45;3.10;;;2.70;;
28653;SDS011;24320;56.980;24.336;2023-04-24T04:34:12;7.43;;;2.80;;
28653;SDS011;24320;56.980;24.336;2023-04-24T04:36:40;5.38;;;2.83;;
28653;SDS011;24320;56.980;24.336;2023-04-24T04:39:08;4.05;;;2.55;;
28653;SDS011;24320;56.980;24.336;2023-04-24T04:41:34;5.07;;;2.97;;
28653;SDS011;24320;56.980;24.336;2023-04-24T04:44:02;6.68;;;2.72;;
28653;SDS011;24320;56.980;24.336;2023-04-24T04:46:31;7.22;;;3.03;;
28653;SDS011;24320;56.980;24.336;2023-04-24T04:49:03;21.70;;;3.88;;
28653;SDS011;24320;56.980;24.336;2023-04-24T04:51:30;5.40;;;3.08;;
28653;SDS011;24320;56.980;24.336;2023-04-24T04:53:58;5.57;;;2.92;;
28653;SDS011;24320;56.980;24.336;2023-04-24T04:56:26;4.82;;;2.72;;
28653;SDS011;24320;56.980;24.336;2023-04-24T04:58:53;6.22;;;2.65;;
28653;SDS011;24320;56.980;24.336;2023-04-24T05:01:20;4.10;;;2.70;;
28653;SDS011;24320;56.980;24.336;2023-04-24T05:03:49;4.15;;;2.60;;
28653;SDS011;24320;56.980;24.336;2023-04-24T05:06:16;4.28;;;3.25;;
28653;SDS011;24320;56.980;24.336;2023-04-24T05:08:43;6.20;;;3.10;;
28653;SDS011;24320;56.980;24.336;2023-04-24T05:11:10;7.05;;;3.03;;
28653;SDS011;24320;56.980;24.336;2023-04-24T05:13:38;5.47;;;3.00;;
28653;SDS011;24320;56.980;24.336;2023-04-24T05:16:06;12.07;;;3.22;;
28653;SDS011;24320;56.980;24.336;2023-04-24T05:18:33;5.00;;;3.05;;
28653;SDS011;24320;56.980;24.336;2023-04-24T05:21:00;5.18;;;2.97;;
28653;SDS011;24320;56.980;24.336;2023-04-24T05:23:27;4.22;;;2.80;;
28653;SDS011;24320;56.980;24.336;2023-04-24T05:25:54;6.00;;;2.75;;
28653;SDS011;24320;56.980;24.336;2023-04-24T05:28:21;7.38;;;3.72;;
28653;SDS011;24320;56.980;24.336;2023-04-24T05:30:48;4.45;;;3.25;;
28653;SDS011;24320;56.980;24.336;2023-04-24T05:33:16;14.02;;;3.63;;
28653;SDS011;24320;56.980;24.336;2023-04-24T05:35:50;12.02;;;3.38;;
28653;SDS011;24320;56.980;24.336;2023-04-24T05:38:17;11.65;;;3.50;;
28653;SDS011;24320;56.980;24.336;2023-04-24T05:40:45;5.45;;;3.42;;
28653;SDS011;24320;56.980;24.336;2023-04-24T05:43:12;7.22;;;3.50;;
28653;SDS011;24320;56.980;24.336;2023-04-24T05:45:40;23.27;;;5.63;;
28653;SDS011;24320;56.980;24.336;2023-04-24T05:48:07;5.93;;;3.40;;
28653;SDS011;24320;56.980;24.336;2023-04-24T05:50:34;7.60;;;3.95;;
28653;SDS011;24320;56.980;24.336;2023-04-24T05:53:02;6.57;;;3.40;;
28653;SDS011;24320;56.980;24.336;2023-04-24T05:55:30;29.08;;;5.22;;
28653;SDS011;24320;56.980;24.336;2023-04-24T05:57:58;4.85;;;3.47;;
28653;SDS011;24320;56.980;24.336;2023-04-24T06:00:25;5.55;;;3.63;;
28653;SDS011;24320;56.980;24.336;2023-04-24T06:02:53;8.85;;;4.25;;
28653;SDS011;24320;56.980;24.336;2023-04-24T06:05:21;7.15;;;3.78;;
28653;SDS011;24320;56.980;24.336;2023-04-24T06:07:48;8.43;;;3.92;;
28653;SDS011;24320;56.980;24.336;2023-04-24T06:10:15;6.32;;;3.70;;
28653;SDS011;24320;56.980;24.336;2023-04-24T06:12:42;8.77;;;4.07;;
28653;SDS011;24320;56.980;24.336;2023-04-24T06:15:09;49.13;;;7.18;;
28653;SDS011;24320;56.980;24.336;2023-04-24T06:17:36;6.50;;;3.53;;
28653;SDS011;24320;56.980;24.336;2023-04-24T06:20:04;8.50;;;3.70;;
28653;SDS011;24320;56.980;24.336;2023-04-24T06:22:32;125.70;;;12.75;;
28653;SDS011;24320;56.980;24.336;2023-04-24T06:25:02;7.60;;;4.00;;
28653;SDS011;24320;56.980;24.336;2023-04-24T06:27:29;5.75;;;4.07;;
28653;SDS011;24320;56.980;24.336;2023-04-24T06:29:56;10.48;;;3.75;;
28653;SDS011;24320;56.980;24.336;2023-04-24T06:32:23;6.05;;;3.92;;
28653;SDS011;24320;56.980;24.336;2023-04-24T06:34:51;12.18;;;4.13;;
28653;SDS011;24320;56.980;24.336;2023-04-24T06:37:22;14.68;;;4.63;;
28653;SDS011;24320;56.980;24.336;2023-04-24T06:39:49;43.58;;;7.78;;
28653;SDS011;24320;56.980;24.336;2023-04-24T06:42:16;11.02;;;4.35;;
28653;SDS011;24320;56.980;24.336;2023-04-24T06:44:45;8.10;;;3.80;;
28653;SDS011;24320;56.980;24.336;2023-04-24T06:47:13;7.72;;;4.35;;
28653;SDS011;24320;56.980;24.336;2023-04-24T06:49:40;38.40;;;6.22;;
28653;SDS011;24320;56.980;24.336;2023-04-24T06:52:10;75.35;;;9.10;;
28653;SDS011;24320;56.980;24.336;2023-04-24T06:54:37;10.33;;;4.00;;
28653;SDS011;24320;56.980;24.336;2023-04-24T06:57:04;4.82;;;3.72;;
28653;SDS011;24320;56.980;24.336;2023-04-24T06:59:32;5.05;;;3.90;;
28653;SDS011;24320;56.980;24.336;2023-04-24T07:01:59;14.40;;;4.07;;
28653;SDS011;24320;56.980;24.336;2023-04-24T07:04:26;28.27;;;5.47;;
28653;SDS011;24320;56.980;24.336;2023-04-24T07:06:54;7.57;;;4.50;;
28653;SDS011;24320;56.980;24.336;2023-04-24T07:09:26;28.83;;;5.18;;
28653;SDS011;24320;56.980;24.336;2023-04-24T07:11:53;8.85;;;4.47;;
28653;SDS011;24320;56.980;24.336;2023-04-24T07:14:22;12.35;;;4.25;;
28653;SDS011;24320;56.980;24.336;2023-04-24T07:16:50;13.60;;;5.38;;
28653;SDS011;24320;56.980;24.336;2023-04-24T07:19:17;10.80;;;5.38;;
28653;SDS011;24320;56.980;24.336;2023-04-24T07:21:44;9.00;;;3.97;;
28653;SDS011;24320;56.980;24.336;2023-04-24T07:24:11;8.70;;;4.40;;
28653;SDS011;24320;56.980;24.336;2023-04-24T07:26:39;6.72;;;3.83;;
28653;SDS011;24320;56.980;24.336;2023-04-24T07:29:06;5.95;;;4.00;;
28653;SDS011;24320;56.980;24.336;2023-04-24T07:31:34;37.60;;;5.88;;
28653;SDS011;24320;56.980;24.336;2023-04-24T07:34:01;19.50;;;4.63;;
28653;SDS011;24320;56.980;24.336;2023-04-24T07:36:28;5.70;;;3.50;;
28653;SDS011;24320;56.980;24.336;2023-04-24T07:38:55;9.43;;;4.07;;
28653;SDS011;24320;56.980;24.336;2023-04-24T07:41:23;6.32;;;3.72;;
28653;SDS011;24320;56.980;24.336;2023-04-24T07:43:50;6.85;;;3.67;;
28653;SDS011;24320;56.980;24.336;2023-04-24T07:46:18;11.25;;;4.15;;
28653;SDS011;24320;56.980;24.336;2023-04-24T07:48:46;8.70;;;3.90;;
28653;SDS011;24320;56.980;24.336;2023-04-24T07:51:27;7.70;;;4.07;;
28653;SDS011;24320;56.980;24.336;2023-04-24T07:53:57;6.38;;;3.58;;
28653;SDS011;24320;56.980;24.336;2023-04-24T07:56:24;34.42;;;5.40;;
28653;SDS011;24320;56.980;24.336;2023-04-24T07:58:53;33.55;;;6.55;;
28653;SDS011;24320;56.980;24.336;2023-04-24T08:01:20;8.65;;;3.88;;
28653;SDS011;24320;56.980;24.336;2023-04-24T08:03:47;9.50;;;3.90;;
28653;SDS011;24320;56.980;24.336;2023-04-24T08:06:14;8.68;;;4.30;;
28653;SDS011;24320;56.980;24.336;2023-04-24T08:08:41;5.20;;;3.83;;
28653;SDS011;24320;56.980;24.336;2023-04-24T08:11:09;21.17;;;4.85;;
28653;SDS011;24320;56.980;24.336;2023-04-24T08:13:36;17.33;;;4.90;;
28653;SDS011;24320;56.980;24.336;2023-04-24T08:16:03;6.63;;;4.03;;
28653;SDS011;24320;56.980;24.336;2023-04-24T08:18:30;8.90;;;4.05;;
28653;SDS011;24320;56.980;24.336;2023-04-24T08:20:57;7.03;;;4.22;;
28653;SDS011;24320;56.980;24.336;2023-04-24T08:23:27;7.78;;;3.92;;
28653;SDS011;24320;56.980;24.336;2023-04-24T08:25:56;14.60;;;4.85;;
28653;SDS011;24320;56.980;24.336;2023-04-24T08:28:24;6.53;;;4.00;;
28653;SDS011;24320;56.980;24.336;2023-04-24T08:30:51;7.20;;;4.22;;
28653;SDS011;24320;56.980;24.336;2023-04-24T08:33:23;8.90;;;4.50;;
28653;SDS011;24320;56.980;24.336;2023-04-24T08:35:50;10.13;;;4.13;;
28653;SDS011;24320;56.980;24.336;2023-04-24T08:38:18;7.15;;;4.30;;
28653;SDS011;24320;56.980;24.336;2023-04-24T08:40:46;5.72;;;4.05;;
28653;SDS011;24320;56.980;24.336;2023-04-24T08:43:15;9.45;;;4.85;;
28653;SDS011;24320;56.980;24.336;2023-04-24T08:45:43;14.30;;;5.22;;
28653;SDS011;24320;56.980;24.336;2023-04-24T08:48:10;12.50;;;5.22;;
28653;SDS011;24320;56.980;24.336;2023-04-24T08:50:53;7.72;;;4.65;;
28653;SDS011;24320;56.980;24.336;2023-04-24T08:53:20;8.27;;;4.63;;
28653;SDS011;24320;56.980;24.336;2023-04-24T08:55:47;6.22;;;4.40;;
28653;SDS011;24320;56.980;24.336;2023-04-24T08:58:16;13.57;;;4.80;;
28653;SDS011;24320;56.980;24.336;2023-04-24T09:00:44;8.40;;;4.63;;
28653;SDS011;24320;56.980;24.336;2023-04-24T09:03:15;9.77;;;4.85;;
28653;SDS011;24320;56.980;24.336;2023-04-24T09:05:44;7.47;;;4.78;;
28653;SDS011;24320;56.980;24.336;2023-04-24T09:08:13;8.85;;;4.43;;
28653;SDS011;24320;56.980;24.336;2023-04-24T09:10:42;10.25;;;5.15;;
28653;SDS011;24320;56.980;24.336;2023-04-24T09:13:09;6.55;;;4.57;;
28653;SDS011;24320;56.980;24.336;2023-04-24T09:15:37;7.15;;;4.80;;
28653;SDS011;24320;56.980;24.336;2023-04-24T09:18:05;18.58;;;4.90;;
28653;SDS011;24320;56.980;24.336;2023-04-24T09:20:32;7.88;;;4.90;;
28653;SDS011;24320;56.980;24.336;2023-04-24T09:23:02;7.55;;;4.15;;
28653;SDS011;24320;56.980;24.336;2023-04-24T09:25:33;22.95;;;5.60;;
28653;SDS011;24320;56.980;24.336;2023-04-24T09:28:02;34.60;;;5.78;;
28653;SDS011;24320;56.980;24.336;2023-04-24T09:30:32;10.90;;;4.60;;
28653;SDS011;24320;56.980;24.336;2023-04-24T09:33:10;9.20;;;4.70;;
28653;SDS011;24320;56.980;24.336;2023-04-24T09:35:42;6.93;;;4.20;;
28653;SDS011;24320;56.980;24.336;2023-04-24T09:38:15;7.82;;;4.85;;
28653;SDS011;24320;56.980;24.336;2023-04-24T09:40:42;9.15;;;4.45;;
28653;SDS011;24320;56.980;24.336;2023-04-24T09:43:12;10.75;;;4.97;;
28653;SDS011;24320;56.980;24.336;2023-04-24T09:48:10;8.48;;;4.70;;
28653;SDS011;24320;56.980;24.336;2023-04-24T09:50:37;7.67;;;4.80;;
28653;SDS011;24320;56.980;24.336;2023-04-24T09:53:05;9.00;;;4.47;;
28653;SDS011;24320;56.980;24.336;2023-04-24T09:55:42;6.30;;;4.60;;
28653;SDS011;24320;56.980;24.336;2023-04-24T09:58:12;8.90;;;4.97;;
28653;SDS011;24320;56.980;24.336;2023-04-24T10:00:39;6.10;;;4.68;;
28653;SDS011;24320;56.980;24.336;2023-04-24T10:03:06;19.63;;;6.30;;
28653;SDS011;24320;56.980;24.336;2023-04-24T10:05:35;15.70;;;5.10;;
28653;SDS011;24320;56.980;24.336;2023-04-24T10:08:06;61.50;;;9.05;;
28653;SDS011;24320;56.980;24.336;2023-04-24T10:10:38;37.03;;;6.65;;
28653;SDS011;24320;56.980;24.336;2023-04-24T10:13:09;20.35;;;5.50;;
28653;SDS011;24320;56.980;24.336;2023-04-24T10:15:38;6.90;;;4.70;;
28653;SDS011;24320;56.980;24.336;2023-04-24T10:18:06;6.43;;;4.53;;
28653;SDS011;24320;56.980;24.336;2023-04-24T10:20:35;9.27;;;5.32;;
28653;SDS011;24320;56.980;24.336;2023-04-24T10:23:03;6.65;;;4.68;;
28653;SDS011;24320;56.980;24.336;2023-04-24T10:25:32;7.75;;;4.80;;
28653;SDS011;24320;56.980;24.336;2023-04-24T10:28:01;13.23;;;4.80;;
28653;SDS011;24320;56.980;24.336;2023-04-24T10:30:29;11.57;;;4.68;;
28653;SDS011;24320;56.980;24.336;2023-04-24T10:33:04;7.63;;;4.47;;
28653;SDS011;24320;56.980;24.336;2023-04-24T10:35:36;8.25;;;4.63;;
28653;SDS011;24320;56.980;24.336;2023-04-24T10:38:08;15.65;;;5.70;;
28653;SDS011;24320;56.980;24.336;2023-04-24T10:40:38;9.50;;;4.22;;
28653;SDS011;24320;56.980;24.336;2023-04-24T10:43:06;8.50;;;4.60;;
28653;SDS011;24320;56.980;24.336;2023-04-24T10:45:38;5.88;;;4.10;;
28653;SDS011;24320;56.980;24.336;2023-04-24T10:48:06;10.68;;;4.50;;
28653;SDS011;24320;56.980;24.336;2023-04-24T10:53:17;7.90;;;3.97;;
28653;SDS011;24320;56.980;24.336;2023-04-24T10:55:52;6.78;;;4.40;;
28653;SDS011;24320;56.980;24.336;2023-04-24T11:01:26;11.52;;;4.05;;
28653;SDS011;24320;56.980;24.336;2023-04-24T11:03:54;6.28;;;4.00;;
28653;SDS011;24320;56.980;24.336;2023-04-24T11:06:36;6.13;;;4.30;;
28653;SDS011;24320;56.980;24.336;2023-04-24T11:09:04;11.85;;;4.35;;
28653;SDS011;24320;56.980;24.336;2023-04-24T11:11:36;8.48;;;4.22;;
28653;SDS011;24320;56.980;24.336;2023-04-24T11:14:07;8.45;;;4.57;;
28653;SDS011;24320;56.980;24.336;2023-04-24T11:16:35;7.05;;;4.20;;
28653;SDS011;24320;56.980;24.336;2023-04-24T11:19:07;8.57;;;4.38;;
28653;SDS011;24320;56.980;24.336;2023-04-24T11:21:39;13.18;;;4.63;;
28653;SDS011;24320;56.980;24.336;2023-04-24T11:29:41;62.35;;;7.90;;
28653;SDS011;24320;56.980;24.336;2023-04-24T11:32:23;24.58;;;5.85;;
28653;SDS011;24320;56.980;24.336;2023-04-24T11:35:01;10.93;;;4.70;;
28653;SDS011;24320;56.980;24.336;2023-04-24T11:37:37;9.93;;;4.53;;
28653;SDS011;24320;56.980;24.336;2023-04-24T11:40:06;12.85;;;4.70;;
28653;SDS011;24320;56.980;24.336;2023-04-24T11:42:36;10.07;;;5.00;;
28653;SDS011;24320;56.980;24.336;2023-04-24T11:45:08;12.70;;;5.43;;
28653;SDS011;24320;56.980;24.336;2023-04-24T11:47:36;8.85;;;4.40;;
28653;SDS011;24320;56.980;24.336;2023-04-24T11:50:05;8.27;;;4.85;;
28653;SDS011;24320;56.980;24.336;2023-04-24T11:52:37;6.72;;;4.45;;
28653;SDS011;24320;56.980;24.336;2023-04-24T11:55:08;8.38;;;4.25;;
28653;SDS011;24320;56.980;24.336;2023-04-24T11:57:51;27.75;;;6.38;;
28653;SDS011;24320;56.980;24.336;2023-04-24T12:00:21;10.68;;;5.13;;
28653;SDS011;24320;56.980;24.336;2023-04-24T12:02:50;11.73;;;5.00;;
28653;SDS011;24320;56.980;24.336;2023-04-24T12:05:25;8.45;;;4.88;;
28653;SDS011;24320;56.980;24.336;2023-04-24T12:07:53;8.20;;;4.32;;
28653;SDS011;24320;56.980;24.336;2023-04-24T12:10:26;9.90;;;4.32;;
28653;SDS011;24320;56.980;24.336;2023-04-24T12:12:55;6.97;;;4.55;;
28653;SDS011;24320;56.980;24.336;2023-04-24T12:15:24;12.48;;;5.40;;
28653;SDS011;24320;56.980;24.336;2023-04-24T12:17:51;10.98;;;4.63;;
28653;SDS011;24320;56.980;24.336;2023-04-24T12:20:32;12.63;;;5.00;;
28653;SDS011;24320;56.980;24.336;2023-04-24T12:23:00;9.40;;;5.13;;
28653;SDS011;24320;56.980;24.336;2023-04-24T12:25:28;11.57;;;6.20;;
28653;SDS011;24320;56.980;24.336;2023-04-24T12:30:38;14.40;;;6.18;;
28653;SDS011;24320;56.980;24.336;2023-04-24T12:33:18;13.85;;;5.15;;
28653;SDS011;24320;56.980;24.336;2023-04-24T12:35:47;8.45;;;5.32;;
28653;SDS011;24320;56.980;24.336;2023-04-24T12:38:15;13.38;;;5.30;;
28653;SDS011;24320;56.980;24.336;2023-04-24T12:40:44;11.30;;;5.65;;
28653;SDS011;24320;56.980;24.336;2023-04-24T12:45:42;14.00;;;6.47;;
28653;SDS011;24320;56.980;24.336;2023-04-24T12:48:09;10.30;;;6.00;;
28653;SDS011;24320;56.980;24.336;2023-04-24T12:50:36;14.98;;;6.10;;
28653;SDS011;24320;56.980;24.336;2023-04-24T12:53:05;14.48;;;6.05;;
28653;SDS011;24320;56.980;24.336;2023-04-24T12:55:34;15.00;;;5.80;;
28653;SDS011;24320;56.980;24.336;2023-04-24T12:58:03;15.48;;;6.60;;
28653;SDS011;24320;56.980;24.336;2023-04-24T13:00:30;9.95;;;5.65;;
28653;SDS011;24320;56.980;24.336;2023-04-24T13:02:58;13.40;;;5.60;;
28653;SDS011;24320;56.980;24.336;2023-04-24T13:05:25;16.70;;;6.57;;
28653;SDS011;24320;56.980;24.336;2023-04-24T13:07:52;12.77;;;5.50;;
28653;SDS011;24320;56.980;24.336;2023-04-24T13:10:19;13.02;;;6.55;;
28653;SDS011;24320;56.980;24.336;2023-04-24T13:12:46;14.70;;;5.18;;
28653;SDS011;24320;56.980;24.336;2023-04-24T13:15:13;9.05;;;5.57;;
28653;SDS011;24320;56.980;24.336;2023-04-24T13:17:40;12.63;;;5.78;;
28653;SDS011;24320;56.980;24.336;2023-04-24T13:20:08;16.38;;;6.50;;
28653;SDS011;24320;56.980;24.336;2023-04-24T13:22:35;14.98;;;5.82;;
28653;SDS011;24320;56.980;24.336;2023-04-24T13:25:03;11.30;;;6.22;;
28653;SDS011;24320;56.980;24.336;2023-04-24T13:27:32;16.58;;;6.10;;
28653;SDS011;24320;56.980;24.336;2023-04-24T13:29:59;10.30;;;5.70;;
28653;SDS011;24320;56.980;24.336;2023-04-24T13:32:27;12.93;;;5.65;;
28653;SDS011;24320;56.980;24.336;2023-04-24T13:34:56;15.07;;;5.95;;
28653;SDS011;24320;56.980;24.336;2023-04-24T13:37:23;12.20;;;5.75;;
28653;SDS011;24320;56.980;24.336;2023-04-24T13:39:50;14.43;;;6.03;;
28653;SDS011;24320;56.980;24.336;2023-04-24T13:42:17;14.38;;;5.68;;
28653;SDS011;24320;56.980;24.336;2023-04-24T13:44:46;17.95;;;6.03;;
28653;SDS011;24320;56.980;24.336;2023-04-24T13:47:13;28.75;;;5.78;;
28653;SDS011;24320;56.980;24.336;2023-04-24T13:49:40;11.95;;;5.80;;
28653;SDS011;24320;56.980;24.336;2023-04-24T13:52:07;20.15;;;6.35;;
28653;SDS011;24320;56.980;24.336;2023-04-24T13:54:34;11.07;;;6.03;;
28653;SDS011;24320;56.980;24.336;2023-04-24T13:57:01;13.73;;;5.60;;
28653;SDS011;24320;56.980;24.336;2023-04-24T13:59:29;19.23;;;6.30;;
28653;SDS011;24320;56.980;24.336;2023-04-24T14:01:57;15.00;;;6.45;;
28653;SDS011;24320;56.980;24.336;2023-04-24T14:04:24;10.23;;;5.80;;
28653;SDS011;24320;56.980;24.336;2023-04-24T14:06:51;13.15;;;6.55;;
28653;SDS011;24320;56.980;24.336;2023-04-24T14:09:18;14.57;;;6.28;;
28653;SDS011;24320;56.980;24.336;2023-04-24T14:11:46;12.32;;;6.05;;
28653;SDS011;24320;56.980;24.336;2023-04-24T14:14:13;11.25;;;6.30;;
28653;SDS011;24320;56.980;24.336;2023-04-24T14:16:40;16.80;;;6.78;;
28653;SDS011;24320;56.980;24.336;2023-04-24T14:19:07;12.05;;;6.03;;
28653;SDS011;24320;56.980;24.336;2023-04-24T14:21:34;27.05;;;6.95;;
28653;SDS011;24320;56.980;24.336;2023-04-24T14:24:01;13.93;;;6.75;;
28653;SDS011;24320;56.980;24.336;2023-04-24T14:26:29;12.20;;;6.82;;
28653;SDS011;24320;56.980;24.336;2023-04-24T14:28:56;15.85;;;6.47;;
28653;SDS011;24320;56.980;24.336;2023-04-24T14:31:39;15.00;;;6.35;;
28653;SDS011;24320;56.980;24.336;2023-04-24T14:34:06;12.52;;;6.35;;
28653;SDS011;24320;56.980;24.336;2023-04-24T14:36:33;12.60;;;6.47;;
28653;SDS011;24320;56.980;24.336;2023-04-24T14:39:01;10.65;;;5.97;;
28653;SDS011;24320;56.980;24.336;2023-04-24T14:41:33;15.85;;;6.60;;
28653;SDS011;24320;56.980;24.336;2023-04-24T14:44:03;12.85;;;6.68;;
28653;SDS011;24320;56.980;24.336;2023-04-24T14:46:31;16.42;;;6.47;;
28653;SDS011;24320;56.980;24.336;2023-04-24T14:48:58;15.45;;;6.25;;
28653;SDS011;24320;56.980;24.336;2023-04-24T14:51:25;12.40;;;6.45;;
28653;SDS011;24320;56.980;24.336;2023-04-24T14:53:53;8.88;;;6.03;;
28653;SDS011;24320;56.980;24.336;2023-04-24T14:56:20;11.93;;;6.20;;